Time;durP1;ratioP1;P1;durP2;ratioP2;P2;SDS_P1;SDS_P2;PMS_P1;PMS_P2;Temp;Humidity;BMP_temperature;BMP_pressure;BME280_temperature;BME280_humidity;BME280_pressure;Samples;Min_cycle;Max_cycle;Signal;HPM_P1;HPM_P2
2021/03/29 00:00:27;;;;;;;6.18;1.90;;;13.40;67.70;;;;;;5032808;28;20037;-72
2021/03/29 00:02:53;;;;;;;5.38;2.00;;;13.30;67.60;;;;;;5034954;28;20042;-72
2021/03/29 00:05:21;;;;;;;5.72;1.83;;;13.30;67.70;;;;;;5031386;28;20492;-72
2021/03/29 00:07:51;;;;;;;5.18;2.70;;;13.30;67.60;;;;;;5021727;28;20794;-72
2021/03/29 00:10:17;;;;;;;7.05;2.20;;;13.30;67.70;;;;;;5034460;28;20033;-72
2021/03/29 00:12:45;;;;;;;5.50;2.10;;;13.30;67.70;;;;;;5054280;28;20048;-72
2021/03/29 00:15:16;;;;;;;4.85;1.67;;;13.30;67.80;;;;;;5029861;28;20037;-72
2021/03/29 00:17:43;;;;;;;5.57;2.10;;;13.30;67.90;;;;;;5054255;28;20376;-72
2021/03/29 00:20:14;;;;;;;5.18;2.45;;;13.30;68.40;;;;;;5047396;28;20116;-72
2021/03/29 00:22:41;;;;;;;5.72;2.00;;;13.30;67.90;;;;;;5054351;28;20088;-73
2021/03/29 00:25:12;;;;;;;7.47;2.17;;;13.30;67.80;;;;;;5048545;28;20041;-73
2021/03/29 00:27:38;;;;;;;7.85;2.72;;;13.30;67.70;;;;;;5054121;28;20452;-73
2021/03/29 00:30:12;;;;;;;6.05;2.45;;;13.30;67.70;;;;;;5045389;28;20041;-73
2021/03/29 00:32:38;;;;;;;7.00;2.10;;;13.30;68.20;;;;;;5054096;28;20519;-72
2021/03/29 00:35:05;;;;;;;5.07;1.90;;;13.40;67.60;;;;;;5041201;28;20506;-72
2021/03/29 00:37:32;;;;;;;8.40;2.38;;;13.30;67.60;;;;;;5054100;28;20373;-72
2021/03/29 00:39:59;;;;;;;6.38;2.40;;;13.30;67.50;;;;;;5040709;28;20040;-72
2021/03/29 00:42:26;;;;;;;7.00;2.65;;;13.30;67.50;;;;;;5053299;28;20457;-72
2021/03/29 00:44:52;;;;;;;6.85;2.35;;;13.30;67.40;;;;;;5041529;28;20065;-73
2021/03/29 00:47:17;;;;;;;4.53;2.30;;;13.30;67.50;;;;;;5050485;28;20079;-72
2021/03/29 00:49:43;;;;;;;4.40;1.63;;;13.30;67.50;;;;;;5045036;28;20049;-71
2021/03/29 00:52:09;;;;;;;5.60;2.20;;;13.30;67.50;;;;;;5049406;28;20032;-71
2021/03/29 00:54:37;;;;;;;5.80;1.98;;;13.30;67.50;;;;;;5046890;28;20510;-71
2021/03/29 00:57:03;;;;;;;5.82;2.05;;;13.30;67.90;;;;;;5048039;28;20477;-71
2021/03/29 00:59:29;;;;;;;7.97;2.05;;;13.30;67.40;;;;;;5042818;28;20049;-72
2021/03/29 01:01:56;;;;;;;5.57;2.00;;;13.30;67.40;;;;;;5047077;28;20033;-71
2021/03/29 01:04:21;;;;;;;7.55;1.90;;;13.30;67.20;;;;;;5047353;28;20061;-72
2021/03/29 01:06:50;;;;;;;6.43;2.00;;;13.30;67.20;;;;;;5026606;28;20058;-70
2021/03/29 01:09:20;;;;;;;8.63;2.30;;;13.40;67.20;;;;;;5025557;28;20034;-72
2021/03/29 01:11:53;;;;;;;8.25;1.95;;;13.30;67.10;;;;;;5045938;28;20053;-70
2021/03/29 01:14:26;;;;;;;9.05;2.15;;;13.30;67.10;;;;;;5040506;28;20025;-70
2021/03/29 01:17:03;;;;;;;7.80;2.30;;;13.40;67.10;;;;;;5046488;28;20108;-70
2021/03/29 01:20:06;;;;;;;4.97;1.85;;;13.30;67.00;;;;;;5039674;28;20033;-70
2021/03/29 01:22:39;;;;;;;7.68;2.40;;;13.30;66.90;;;;;;5013568;28;20048;-71
2021/03/29 01:25:31;;;;;;;6.10;2.10;;;13.30;67.00;;;;;;5029270;28;20037;-71
2021/03/29 01:28:03;;;;;;;4.47;2.15;;;13.30;67.10;;;;;;5049419;28;20272;-71
2021/03/29 01:30:34;;;;;;;4.32;1.77;;;13.30;67.20;;;;;;5031277;28;20026;-71
2021/03/29 01:33:01;;;;;;;6.40;2.10;;;13.30;67.10;;;;;;5030461;28;20029;-71
2021/03/29 01:35:42;;;;;;;4.95;2.00;;;13.30;67.10;;;;;;5019370;28;20499;-71
2021/03/29 01:38:09;;;;;;;5.38;2.00;;;13.30;67.20;;;;;;5037194;28;20032;-71
2021/03/29 01:40:39;;;;;;;4.43;2.20;;;13.30;67.20;;;;;;5045478;28;20036;-71
2021/03/29 01:43:11;;;;;;;3.42;1.75;;;13.30;67.30;;;;;;5035366;28;20037;-71
2021/03/29 01:45:37;;;;;;;6.85;2.25;;;13.30;67.30;;;;;;5032167;28;20034;-72
2021/03/29 01:48:05;;;;;;;7.05;2.42;;;13.30;67.30;;;;;;5041187;28;20052;-71
2021/03/29 01:50:33;;;;;;;6.55;2.20;;;13.20;67.30;;;;;;5051110;28;20230;-71
2021/03/29 01:53:00;;;;;;;5.40;1.88;;;13.30;67.50;;;;;;5040276;28;20029;-70
2021/03/29 01:55:30;;;;;;;5.93;2.30;;;13.30;67.30;;;;;;5052521;28;20025;-71
2021/03/29 01:57:58;;;;;;;6.18;2.17;;;13.30;67.30;;;;;;5038758;28;20075;-71
2021/03/29 02:00:50;;;;;;;7.07;2.38;;;13.30;67.40;;;;;;5051952;28;20077;-71
2021/03/29 02:03:16;;;;;;;8.60;2.38;;;13.30;67.50;;;;;;5025104;28;20033;-71
2021/03/29 02:05:43;;;;;;;6.47;2.42;;;13.30;67.40;;;;;;5033235;28;20033;-71
2021/03/29 02:08:10;;;;;;;6.15;2.20;;;13.20;67.50;;;;;;5035019;28;20417;-71
2021/03/29 02:10:38;;;;;;;7.65;2.20;;;13.30;67.60;;;;;;5041762;28;20063;-71
2021/03/29 02:16:28;;;;;;;6.43;2.00;;;13.30;67.80;;;;;;5035907;28;20034;-71
2021/03/29 02:18:57;;;;;;;3.83;1.90;;;13.30;67.50;;;;;;5022206;28;20143;-71
2021/03/29 02:21:26;;;;;;;6.55;2.15;;;13.30;67.60;;;;;;5031994;28;20025;-71
2021/03/29 02:23:56;;;;;;;9.55;2.40;;;13.20;67.60;;;;;;5030101;28;20029;-71
2021/03/29 02:26:23;;;;;;;5.38;2.15;;;13.20;67.70;;;;;;5031986;28;20128;-71
2021/03/29 02:28:49;;;;;;;6.47;1.90;;;13.20;67.80;;;;;;5031380;28;22242;-71
2021/03/29 02:31:16;;;;;;;5.97;2.40;;;13.20;67.90;;;;;;5031825;28;20029;-71
2021/03/29 02:33:42;;;;;;;6.20;2.10;;;13.10;68.00;;;;;;5011892;28;20033;-70
2021/03/29 02:36:08;;;;;;;5.63;2.17;;;13.10;68.20;;;;;;5032451;28;20021;-71
2021/03/29 02:38:34;;;;;;;6.07;2.30;;;13.10;68.20;;;;;;5030240;28;20112;-71
2021/03/29 02:41:00;;;;;;;6.22;2.00;;;13.10;68.20;;;;;;5032438;28;20127;-71
2021/03/29 02:43:27;;;;;;;5.75;2.25;;;13.10;68.20;;;;;;5043815;28;20025;-71
2021/03/29 02:45:55;;;;;;;8.07;2.50;;;13.10;68.50;;;;;;5048193;28;20064;-72
2021/03/29 02:48:24;;;;;;;6.57;2.20;;;13.00;68.60;;;;;;5035625;28;20036;-71
2021/03/29 02:50:52;;;;;;;4.22;2.10;;;13.10;68.80;;;;;;5048039;28;20029;-72
2021/03/29 02:53:23;;;;;;;9.07;2.70;;;13.00;68.70;;;;;;5049170;28;20031;-69
2021/03/29 02:55:50;;;;;;;5.70;2.45;;;13.10;69.00;;;;;;5048116;28;20106;-67
2021/03/29 02:58:21;;;;;;;5.15;2.20;;;13.00;68.90;;;;;;5037654;28;20040;-68
2021/03/29 03:00:47;;;;;;;7.05;2.70;;;13.00;69.00;;;;;;5047406;28;20460;-67
2021/03/29 03:03:13;;;;;;;7.03;2.20;;;13.00;69.10;;;;;;5038842;28;20532;-67
2021/03/29 03:05:39;;;;;;;5.20;1.95;;;12.90;69.10;;;;;;5041876;28;20037;-67
2021/03/29 03:08:07;;;;;;;10.45;3.22;;;12.90;69.30;;;;;;5031042;28;20025;-68
2021/03/29 03:10:35;;;;;;;6.60;2.20;;;12.90;69.40;;;;;;5044945;28;20362;-67
2021/03/29 03:13:04;;;;;;;6.55;2.55;;;12.90;69.70;;;;;;5031990;28;20039;-69
2021/03/29 03:15:31;;;;;;;6.95;2.05;;;12.80;69.60;;;;;;5030557;28;20034;-68
2021/03/29 03:18:00;;;;;;;6.97;1.98;;;12.80;69.60;;;;;;5012871;28;20029;-68
2021/03/29 03:20:27;;;;;;;5.28;2.10;;;12.80;69.80;;;;;;5043947;28;20040;-68
2021/03/29 03:23:09;;;;;;;8.15;2.40;;;12.80;69.80;;;;;;5042030;28;20025;-68
2021/03/29 03:25:38;;;;;;;5.88;2.20;;;12.80;69.90;;;;;;5032710;28;20037;-68
2021/03/29 03:28:07;;;;;;;8.27;2.53;;;12.80;69.90;;;;;;5034797;28;20030;-68
2021/03/29 03:30:35;;;;;;;10.90;2.80;;;12.70;69.80;;;;;;5049164;28;20056;-67
2021/03/29 03:33:03;;;;;;;10.93;3.22;;;12.80;70.00;;;;;;5041103;28;20370;-69
2021/03/29 03:35:29;;;;;;;7.72;2.22;;;12.80;70.10;;;;;;5048742;28;20037;-68
2021/03/29 03:37:59;;;;;;;6.93;2.20;;;12.80;70.20;;;;;;5042480;28;20110;-67
2021/03/29 03:40:26;;;;;;;5.38;1.83;;;12.80;70.20;;;;;;5041257;28;20572;-68
2021/03/29 03:43:01;;;;;;;4.55;2.25;;;12.80;70.20;;;;;;5035068;28;20021;-68
2021/03/29 03:45:30;;;;;;;6.10;2.42;;;12.80;70.10;;;;;;5043855;28;20046;-68
2021/03/29 03:47:58;;;;;;;8.13;2.35;;;12.80;70.10;;;;;;5034725;28;20053;-68
2021/03/29 03:50:24;;;;;;;4.82;2.05;;;12.80;70.10;;;;;;5044569;28;20086;-68
2021/03/29 03:52:51;;;;;;;3.20;1.98;;;12.80;70.10;;;;;;5035113;28;20022;-68
2021/03/29 03:55:17;;;;;;;6.72;2.50;;;12.80;70.10;;;;;;5039937;28;20033;-68
2021/03/29 03:57:44;;;;;;;6.95;2.60;;;12.80;70.10;;;;;;5033298;28;20025;-68
2021/03/29 04:00:18;;;;;;;7.93;3.00;;;12.80;70.20;;;;;;5041300;28;20042;-68
2021/03/29 04:02:46;;;;;;;5.82;1.92;;;12.80;70.40;;;;;;5016782;28;20021;-68
2021/03/29 04:05:14;;;;;;;5.53;2.40;;;12.80;70.40;;;;;;5033447;28;20034;-68
2021/03/29 04:07:40;;;;;;;7.68;2.17;;;12.80;70.30;;;;;;5050654;28;20032;-68
2021/03/29 04:12:53;;;;;;;12.20;2.67;;;12.90;70.20;;;;;;5034355;28;20037;-67
2021/03/29 04:15:20;;;;;;;4.65;2.25;;;12.90;70.30;;;;;;5044971;28;20036;-68
2021/03/29 04:17:46;;;;;;;4.47;1.98;;;12.80;70.20;;;;;;5049757;28;20036;-68
2021/03/29 04:20:13;;;;;;;7.57;2.85;;;12.80;70.30;;;;;;5045204;28;20037;-68
2021/03/29 04:22:39;;;;;;;7.72;2.55;;;12.80;70.40;;;;;;5033122;28;20028;-67
2021/03/29 04:25:06;;;;;;;7.68;2.63;;;12.80;70.40;;;;;;5019268;28;20429;-67
2021/03/29 04:27:32;;;;;;;8.32;2.33;;;12.80;70.30;;;;;;5033780;28;20532;-67
2021/03/29 04:29:58;;;;;;;6.40;2.17;;;12.80;70.30;;;;;;5046998;28;20045;-67
2021/03/29 04:32:24;;;;;;;7.10;2.70;;;12.80;70.30;;;;;;5054198;28;20385;-68
2021/03/29 04:34:50;;;;;;;6.40;2.35;;;12.80;70.30;;;;;;5041583;28;20025;-69
2021/03/29 04:37:15;;;;;;;8.00;2.30;;;12.80;70.40;;;;;;5038962;28;20036;-67
2021/03/29 04:39:41;;;;;;;5.18;2.40;;;12.80;70.40;;;;;;5016452;28;20035;-67
2021/03/29 04:42:06;;;;;;;6.72;2.40;;;12.80;70.50;;;;;;5033847;28;20028;-67
2021/03/29 04:44:32;;;;;;;6.22;2.25;;;12.80;70.40;;;;;;5034602;28;20433;-67
2021/03/29 04:46:57;;;;;;;6.25;2.47;;;12.80;70.40;;;;;;5033466;28;20401;-68
2021/03/29 04:49:23;;;;;;;6.35;2.53;;;12.80;70.40;;;;;;5035588;28;20450;-67
2021/03/29 04:51:48;;;;;;;7.85;2.53;;;12.80;70.40;;;;;;5034016;28;20021;-69
2021/03/29 04:54:14;;;;;;;10.23;2.40;;;12.80;70.40;;;;;;5036146;28;20029;-67
2021/03/29 04:56:39;;;;;;;7.82;2.60;;;12.80;70.40;;;;;;5033713;28;20025;-68
2021/03/29 04:59:05;;;;;;;4.95;2.10;;;12.80;70.40;;;;;;5035101;28;20041;-67
2021/03/29 05:01:30;;;;;;;9.93;2.58;;;12.80;70.60;;;;;;5034282;28;20025;-68
2021/03/29 05:03:56;;;;;;;9.60;2.33;;;12.80;70.50;;;;;;5031047;28;20535;-68
2021/03/29 05:06:21;;;;;;;5.45;2.75;;;12.80;70.50;;;;;;5037011;28;20034;-68
2021/03/29 05:08:47;;;;;;;9.13;2.70;;;12.80;70.40;;;;;;5033276;28;20026;-68
2021/03/29 05:11:12;;;;;;;7.15;2.88;;;12.80;70.30;;;;;;5053127;28;20107;-68
2021/03/29 05:13:38;;;;;;;6.55;2.60;;;12.80;70.50;;;;;;5050738;28;20074;-68
2021/03/29 05:16:04;;;;;;;5.93;2.53;;;12.80;70.50;;;;;;5051840;28;20094;-69
2021/03/29 05:18:29;;;;;;;8.10;2.75;;;12.80;70.60;;;;;;5049851;28;20021;-68
2021/03/29 05:20:55;;;;;;;6.03;2.38;;;12.80;70.60;;;;;;5032353;28;20022;-68
2021/03/29 05:23:21;;;;;;;5.80;2.72;;;12.80;70.50;;;;;;5031500;28;20063;-69
2021/03/29 05:25:47;;;;;;;6.00;2.40;;;12.80;70.50;;;;;;5048457;28;20033;-70
2021/03/29 05:28:13;;;;;;;9.35;2.60;;;12.80;70.60;;;;;;5052468;28;20025;-67
2021/03/29 05:30:38;;;;;;;8.18;2.75;;;12.90;70.50;;;;;;5047484;28;20044;-68
2021/03/29 05:33:04;;;;;;;7.00;2.42;;;12.90;70.50;;;;;;5034353;28;20021;-68
2021/03/29 05:35:30;;;;;;;8.18;2.97;;;12.90;70.50;;;;;;5034460;28;20382;-70
2021/03/29 05:37:56;;;;;;;10.52;3.42;;;12.90;70.60;;;;;;5014707;28;20516;-71
2021/03/29 05:40:21;;;;;;;8.38;3.20;;;12.90;70.60;;;;;;5044917;28;20078;-70
2021/03/29 05:42:47;;;;;;;6.90;3.13;;;12.90;70.70;;;;;;5052085;28;20017;-71
2021/03/29 05:45:13;;;;;;;7.05;3.13;;;12.90;70.70;;;;;;5031541;28;20036;-70
2021/03/29 05:47:39;;;;;;;9.80;2.92;;;13.00;70.80;;;;;;5042112;28;20493;-71
2021/03/29 05:50:11;;;;;;;9.50;3.50;;;13.00;70.60;;;;;;5025250;28;20098;-71
2021/03/29 05:52:39;;;;;;;5.97;3.28;;;13.00;70.60;;;;;;5038319;28;20017;-71
2021/03/29 05:55:07;;;;;;;9.02;3.00;;;12.90;70.70;;;;;;5035435;28;20500;-71
2021/03/29 06:00:44;;;;;;;12.00;3.63;;;13.00;70.80;;;;;;5043290;28;20053;-71
2021/03/29 06:03:39;;;;;;;10.93;3.28;;;13.10;71.00;;;;;;5045232;28;20397;-71
2021/03/29 06:06:05;;;;;;;;;;;13.10;71.00;;;;;;5032324;28;20536;-70
2021/03/29 06:08:33;;;;;;;6.47;2.83;;;13.20;70.90;;;;;;5031893;28;19917;-71
2021/03/29 06:10:59;;;;;;;10.38;2.92;;;13.20;71.00;;;;;;5051004;28;20036;-70
2021/03/29 06:13:31;;;;;;;8.35;3.83;;;13.20;71.20;;;;;;5034713;28;20030;-71
2021/03/29 06:16:04;;;;;;;8.23;3.40;;;13.20;71.10;;;;;;5049706;28;20025;-72
2021/03/29 06:18:30;;;;;;;9.05;2.97;;;13.20;71.40;;;;;;5032747;28;20373;-71
2021/03/29 06:21:01;;;;;;;11.82;3.60;;;13.30;71.40;;;;;;5050169;28;20021;-71
2021/03/29 06:23:27;;;;;;;9.80;3.50;;;13.30;71.70;;;;;;5031698;28;20138;-71
2021/03/29 06:26:16;;;;;;;9.95;3.65;;;13.30;71.90;;;;;;5017768;28;20037;-71
2021/03/29 06:28:43;;;;;;;9.23;3.95;;;13.30;72.00;;;;;;5036713;28;20534;-69
2021/03/29 06:31:22;;;;;;;8.77;3.30;;;13.40;72.10;;;;;;5044363;28;20143;-71
2021/03/29 06:33:49;;;;;;;8.15;3.10;;;13.40;71.90;;;;;;5024273;28;20506;-71
2021/03/29 06:36:35;;;;;;;9.40;3.75;;;13.50;71.70;;;;;;5033290;28;20025;-71
2021/03/29 06:39:16;;;;;;;9.25;3.50;;;13.50;71.40;;;;;;5017514;28;20477;-71
2021/03/29 06:41:51;;;;;;;10.73;3.17;;;13.60;71.00;;;;;;4981293;28;20048;-72
2021/03/29 06:44:27;;;;;;;10.93;3.65;;;13.60;70.80;;;;;;5034905;28;20499;-72
2021/03/29 06:47:12;;;;;;;9.00;3.22;;;13.70;70.60;;;;;;5043301;28;20049;-72
2021/03/29 06:49:41;;;;;;;8.82;3.10;;;13.70;70.20;;;;;;5019720;28;20089;-71
2021/03/29 06:52:28;;;;;;;9.38;2.97;;;13.80;70.00;;;;;;5031551;28;20041;-70
2021/03/29 06:54:55;;;;;;;9.68;2.90;;;13.90;69.50;;;;;;5037776;28;20035;-71
2021/03/29 06:57:33;;;;;;;10.70;3.47;;;13.80;69.30;;;;;;5029202;28;20033;-67
2021/03/29 06:59:58;;;;;;;8.23;3.13;;;14.00;69.20;;;;;;5035221;28;20049;-69
2021/03/29 07:02:42;;;;;;;7.75;3.33;;;14.00;68.70;;;;;;5016078;28;20029;-70
2021/03/29 07:05:09;;;;;;;6.72;3.47;;;14.10;68.30;;;;;;5016544;28;20033;-68
2021/03/29 07:07:37;;;;;;;8.63;2.90;;;14.20;68.30;;;;;;5016724;28;20034;-69
2021/03/29 07:10:03;;;;;;;8.10;2.95;;;14.20;67.90;;;;;;5023735;28;20040;-68
2021/03/29 07:12:42;;;;;;;7.53;3.15;;;14.30;67.70;;;;;;5026663;28;20112;-68
2021/03/29 07:15:10;;;;;;;11.18;3.17;;;14.30;67.40;;;;;;5030062;28;20033;-68
2021/03/29 07:17:38;;;;;;;12.32;3.35;;;14.40;67.20;;;;;;5031844;28;20037;-68
2021/03/29 07:20:09;;;;;;;7.03;2.95;;;14.40;66.80;;;;;;5035280;28;20037;-67
2021/03/29 07:22:39;;;;;;;7.70;3.10;;;14.50;66.50;;;;;;5013570;28;20021;-68
2021/03/29 07:25:15;;;;;;;11.43;4.22;;;14.50;66.10;;;;;;5031514;28;20032;-68
2021/03/29 07:27:53;;;;;;;9.38;3.00;;;14.60;65.90;;;;;;5022127;28;20101;-67
2021/03/29 07:30:43;;;;;;;9.88;3.10;;;14.60;65.60;;;;;;5023739;28;20025;-68
2021/03/29 07:33:10;;;;;;;7.93;2.70;;;14.60;65.50;;;;;;5029977;28;20026;-68
2021/03/29 07:36:05;;;;;;;9.15;3.25;;;14.70;65.40;;;;;;5038340;28;20044;-68
2021/03/29 07:38:55;;;;;;;10.43;3.10;;;14.70;65.20;;;;;;5020838;28;20041;-69
2021/03/29 07:41:21;;;;;;;7.32;3.20;;;14.80;65.00;;;;;;5035401;28;20025;-68
2021/03/29 07:44:13;;;;;;;7.20;3.20;;;14.90;64.70;;;;;;5030229;28;20036;-68
2021/03/29 07:46:41;;;;;;;8.43;3.85;;;14.90;64.50;;;;;;5037168;28;20045;-67
2021/03/29 07:49:43;;;;;;;7.97;3.28;;;15.00;64.30;;;;;;5033679;28;20112;-68
2021/03/29 07:52:26;;;;;;;12.32;3.33;;;15.00;64.10;;;;;;5030519;28;20048;-68
2021/03/29 07:54:53;;;;;;;9.45;2.92;;;15.00;63.90;;;;;;5030104;28;20030;-67
2021/03/29 07:57:59;;;;;;;8.32;3.30;;;15.10;63.80;;;;;;5029666;28;20068;-68
2021/03/29 08:00:25;;;;;;;;;;;15.10;63.60;;;;;;5039336;28;20129;-69
2021/03/29 08:02:52;;;;;;;7.35;4.13;;;15.20;64.40;;;;;;5031180;28;19952;-68
2021/03/29 08:05:37;;;;;;;11.23;5.13;;;15.30;63.70;;;;;;5042627;28;20031;-68
2021/03/29 08:08:23;;;;;;;12.60;6.10;;;15.30;63.50;;;;;;5034547;28;20041;-68
2021/03/29 08:11:05;;;;;;;11.13;4.10;;;15.40;63.70;;;;;;5045436;28;20063;-70
2021/03/29 08:13:34;;;;;;;9.77;4.13;;;15.50;63.30;;;;;;5015034;28;20034;-68
2021/03/29 08:16:02;;;;;;;8.85;3.00;;;15.60;63.20;;;;;;5047423;28;20022;-70
2021/03/29 08:18:27;;;;;;;11.45;3.55;;;15.70;62.80;;;;;;5034839;28;20113;-69
2021/03/29 08:20:53;;;;;;;6.63;3.13;;;15.90;62.40;;;;;;5031340;28;20112;-69
2021/03/29 08:23:47;;;;;;;8.48;3.13;;;16.00;61.70;;;;;;5025673;28;20030;-69
2021/03/29 08:26:15;;;;;;;8.10;3.28;;;16.10;61.20;;;;;;5036099;28;20044;-69
2021/03/29 08:29:16;;;;;;;9.02;2.78;;;16.20;61.00;;;;;;5014926;28;20034;-69
2021/03/29 08:32:00;;;;;;;12.45;3.63;;;16.20;60.70;;;;;;5018685;28;20017;-67
2021/03/29 08:34:30;;;;;;;5.63;2.88;;;16.30;60.40;;;;;;5024951;28;20108;-68
2021/03/29 08:37:02;;;;;;;9.05;3.00;;;16.40;60.10;;;;;;5015308;28;20083;-70
2021/03/29 08:39:42;;;;;;;5.70;2.80;;;16.50;59.70;;;;;;5032613;28;20091;-71
2021/03/29 08:42:08;;;;;;;9.60;3.67;;;16.60;59.50;;;;;;5033275;28;20018;-69
2021/03/29 08:44:42;;;;;;;11.05;3.03;;;16.70;59.00;;;;;;5032485;28;20063;-68
2021/03/29 08:47:16;;;;;;;13.10;2.93;;;16.70;58.70;;;;;;5033689;28;20490;-69
2021/03/29 08:49:43;;;;;;;10.13;3.10;;;16.80;58.50;;;;;;5033363;28;20029;-68
2021/03/29 08:52:09;;;;;;;7.30;2.35;;;16.90;58.60;;;;;;5033740;28;20036;-69
2021/03/29 08:54:35;;;;;;;7.40;2.72;;;17.00;57.80;;;;;;5038214;28;20021;-69
2021/03/29 08:57:06;;;;;;;7.13;2.35;;;17.10;57.40;;;;;;5040459;28;20025;-69
2021/03/29 08:59:32;;;;;;;5.55;2.40;;;17.20;56.80;;;;;;5046420;28;20048;-70
2021/03/29 09:02:00;;;;;;;8.88;3.05;;;17.20;56.20;;;;;;5034866;28;20115;-69
2021/03/29 09:04:25;;;;;;;8.93;2.42;;;17.20;55.80;;;;;;5037817;28;20351;-69
2021/03/29 09:06:55;;;;;;;8.80;2.72;;;17.20;55.90;;;;;;5017213;28;20120;-69
2021/03/29 09:09:22;;;;;;;5.00;2.40;;;17.30;55.70;;;;;;5037406;28;20021;-69
2021/03/29 09:11:51;;;;;;;8.50;2.83;;;17.30;55.50;;;;;;5041463;28;20029;-68
2021/03/29 09:14:20;;;;;;;8.07;2.63;;;17.30;55.60;;;;;;5037025;28;20064;-69
2021/03/29 09:16:46;;;;;;;10.32;2.33;;;17.40;55.90;;;;;;5053612;28;20025;-69
2021/03/29 09:19:15;;;;;;;7.68;2.60;;;17.50;55.40;;;;;;5040578;28;20029;-69
2021/03/29 09:21:42;;;;;;;7.88;2.55;;;17.50;55.10;;;;;;5050750;28;20027;-69
2021/03/29 09:24:18;;;;;;;9.32;2.97;;;17.60;55.00;;;;;;5034617;28;20063;-69
2021/03/29 09:26:54;;;;;;;7.13;2.17;;;17.70;54.90;;;;;;5053452;28;20091;-66
2021/03/29 09:29:34;;;;;;;8.75;2.50;;;17.70;54.80;;;;;;5024796;28;20108;-68
2021/03/29 09:32:03;;;;;;;6.70;2.20;;;17.80;54.70;;;;;;5043626;28;20048;-68
2021/03/29 09:34:30;;;;;;;7.07;2.25;;;17.90;54.80;;;;;;5024653;28;20026;-67
2021/03/29 09:36:56;;;;;;;9.73;2.40;;;17.90;54.30;;;;;;5019318;28;20479;-68
2021/03/29 09:39:22;;;;;;;10.73;2.88;;;18.00;54.30;;;;;;5037784;28;20059;-68
2021/03/29 09:41:50;;;;;;;9.68;2.70;;;18.10;54.10;;;;;;5046688;28;20029;-68
2021/03/29 09:44:15;;;;;;;8.35;2.05;;;18.10;53.70;;;;;;5031560;28;20450;-69
2021/03/29 09:46:41;;;;;;;8.75;2.58;;;18.20;53.60;;;;;;4999120;28;20033;-68
2021/03/29 09:49:12;;;;;;;7.43;2.63;;;18.20;53.30;;;;;;5034995;28;20029;-68
2021/03/29 09:51:39;;;;;;;8.90;2.78;;;18.30;53.20;;;;;;5020297;28;20037;-67
2021/03/29 09:54:21;;;;;;;6.20;2.50;;;18.40;52.80;;;;;;5034908;28;20071;-68
2021/03/29 09:56:47;;;;;;;4.28;1.85;;;18.40;52.40;;;;;;5040143;28;20027;-68
2021/03/29 09:59:12;;;;;;;7.57;2.55;;;18.40;52.30;;;;;;5035000;28;20045;-68
2021/03/29 10:01:44;;;;;;;9.02;2.92;;;18.40;52.30;;;;;;5041557;28;20025;-68
2021/03/29 10:04:14;;;;;;;4.38;2.25;;;18.40;52.40;;;;;;5031831;28;20044;-68
2021/03/29 10:06:58;;;;;;;6.22;2.58;;;18.50;52.50;;;;;;5035389;28;20037;-68
2021/03/29 10:09:35;;;;;;;10.13;2.80;;;18.60;52.40;;;;;;5031338;28;20057;-68
2021/03/29 10:12:02;;;;;;;5.50;2.20;;;18.70;52.70;;;;;;5036209;28;20048;-68
2021/03/29 10:14:39;;;;;;;6.28;2.13;;;18.70;52.30;;;;;;5031584;28;20074;-68
2021/03/29 10:17:16;;;;;;;6.88;3.00;;;18.80;51.90;;;;;;5045753;28;20033;-69
2021/03/29 10:19:42;;;;;;;6.50;2.35;;;18.90;51.50;;;;;;5039668;28;20035;-68
2021/03/29 10:22:15;;;;;;;8.43;2.85;;;18.90;51.40;;;;;;5032751;28;20417;-69
2021/03/29 10:25:04;;;;;;;11.13;2.67;;;19.00;51.60;;;;;;5040818;28;20071;-68
2021/03/29 10:27:47;;;;;;;6.05;2.17;;;19.10;51.30;;;;;;5030536;28;20038;-68
2021/03/29 10:30:19;;;;;;;7.88;2.10;;;19.20;50.70;;;;;;5029369;28;20067;-67
2021/03/29 10:33:05;;;;;;;8.27;2.15;;;19.20;50.40;;;;;;5031231;28;20052;-68
2021/03/29 10:35:32;;;;;;;8.90;2.47;;;19.30;50.40;;;;;;5035725;28;20072;-68
2021/03/29 10:38:00;;;;;;;10.40;2.53;;;19.40;50.00;;;;;;5031938;28;20075;-68
2021/03/29 10:40:25;;;;;;;6.05;2.30;;;19.40;50.00;;;;;;5029825;28;20025;-68
2021/03/29 10:42:51;;;;;;;6.05;2.30;;;19.40;49.70;;;;;;5031530;28;20108;-69
2021/03/29 10:45:18;;;;;;;5.05;1.85;;;19.40;49.50;;;;;;5030871;28;20083;-68
2021/03/29 10:47:44;;;;;;;7.38;2.78;;;19.40;49.90;;;;;;5031645;28;20025;-68
2021/03/29 10:50:12;;;;;;;8.35;2.20;;;19.30;50.20;;;;;;5037655;28;20084;-68
2021/03/29 10:52:38;;;;;;;5.53;1.85;;;19.30;50.10;;;;;;5031696;28;20029;-68
2021/03/29 10:55:05;;;;;;;4.55;2.00;;;19.30;49.90;;;;;;5048676;28;20043;-67
2021/03/29 10:57:31;;;;;;;5.80;2.47;;;19.20;50.70;;;;;;5051719;28;20058;-68
2021/03/29 10:59:56;;;;;;;5.75;1.98;;;19.10;51.40;;;;;;5047443;28;20135;-68
2021/03/29 11:02:22;;;;;;;5.90;2.17;;;19.10;51.80;;;;;;5046370;28;20075;-68
2021/03/29 11:04:48;;;;;;;8.88;2.00;;;19.00;52.40;;;;;;5040311;28;20071;-68
2021/03/29 11:07:14;;;;;;;7.10;2.15;;;18.90;52.70;;;;;;5033456;28;20060;-68
2021/03/29 11:09:40;;;;;;;9.73;2.35;;;18.90;52.70;;;;;;5049006;28;20028;-68
2021/03/29 11:12:07;;;;;;;8.68;2.70;;;18.80;52.90;;;;;;5051166;28;20029;-68
2021/03/29 11:14:32;;;;;;;7.88;3.10;;;18.80;52.80;;;;;;5047734;28;20032;-68
2021/03/29 11:16:58;;;;;;;5.38;2.33;;;18.80;52.90;;;;;;5042609;28;20026;-67
2021/03/29 11:19:24;;;;;;;4.30;2.28;;;18.80;52.80;;;;;;5034820;28;20052;-68
2021/03/29 11:21:51;;;;;;;6.65;2.55;;;18.90;52.90;;;;;;5044231;28;20103;-67
2021/03/29 11:24:18;;;;;;;6.10;2.60;;;18.90;52.90;;;;;;5037003;28;20481;-69
2021/03/29 11:26:43;;;;;;;8.45;3.20;;;18.80;52.80;;;;;;5033152;28;20044;-67
2021/03/29 11:29:09;;;;;;;8.02;2.35;;;18.90;52.70;;;;;;5031484;28;20025;-68
2021/03/29 11:31:40;;;;;;;7.15;3.05;;;18.90;52.30;;;;;;5051408;28;20029;-67
2021/03/29 11:34:07;;;;;;;5.93;2.42;;;18.80;52.30;;;;;;5031106;28;20071;-67
2021/03/29 11:36:32;;;;;;;9.35;2.60;;;18.80;52.20;;;;;;5051528;28;20033;-68
2021/03/29 11:38:58;;;;;;;10.48;2.53;;;18.80;52.30;;;;;;5048775;28;20112;-68
2021/03/29 11:41:24;;;;;;;8.02;1.98;;;18.80;52.00;;;;;;5037123;28;20048;-68
2021/03/29 11:43:50;;;;;;;7.20;2.45;;;18.70;51.70;;;;;;5031886;28;20055;-67
2021/03/29 11:46:16;;;;;;;5.35;2.42;;;18.70;51.20;;;;;;5055497;28;20036;-68
2021/03/29 11:48:41;;;;;;;7.88;2.33;;;18.80;50.40;;;;;;5034571;28;20021;-68
2021/03/29 11:51:09;;;;;;;6.13;1.95;;;18.80;50.00;;;;;;5024003;28;20491;-68
2021/03/29 11:53:35;;;;;;;11.48;3.72;;;18.90;49.70;;;;;;4998052;28;20474;-68
2021/03/29 11:56:02;;;;;;;6.13;2.05;;;18.90;49.60;;;;;;5034173;28;20030;-68
2021/03/29 11:58:28;;;;;;;4.55;1.98;;;19.00;49.40;;;;;;5034926;28;20029;-68
2021/03/29 12:00:57;;;;;;;4.53;2.03;;;19.10;49.00;;;;;;5032100;28;20087;-68
2021/03/29 12:03:32;;;;;;;6.28;2.28;;;19.20;48.50;;;;;;5034857;28;20032;-68
2021/03/29 12:06:04;;;;;;;5.72;1.95;;;19.30;48.20;;;;;;5033399;28;20045;-68
2021/03/29 12:14:00;;;;;;;6.03;2.13;;;19.40;48.00;;;;;;5031403;28;20432;-68
2021/03/29 12:16:28;;;;;;;6.05;2.13;;;19.40;47.70;;;;;;5017127;28;20026;-68
2021/03/29 12:18:57;;;;;;;7.55;2.28;;;19.40;47.40;;;;;;5030333;28;20018;-69
2021/03/29 12:21:34;;;;;;;3.17;2.13;;;19.50;47.40;;;;;;5034778;28;20449;-69
2021/03/29 12:24:02;;;;;;;5.82;2.33;;;19.50;46.90;;;;;;5031926;28;20360;-68
2021/03/29 12:26:29;;;;;;;7.10;2.35;;;19.50;47.00;;;;;;5034684;28;20088;-68
2021/03/29 12:28:58;;;;;;;8.32;2.55;;;19.50;46.80;;;;;;5013013;28;20031;-68
2021/03/29 12:31:23;;;;;;;6.25;2.22;;;19.50;46.70;;;;;;5029350;28;20026;-68
2021/03/29 12:33:50;;;;;;;8.38;2.15;;;19.50;46.70;;;;;;5031099;28;20034;-68
2021/03/29 12:36:16;;;;;;;4.10;2.08;;;19.50;46.90;;;;;;5016271;28;20545;-68
2021/03/29 12:38:56;;;;;;;7.72;2.67;;;19.40;47.30;;;;;;5022361;28;20432;-67
2021/03/29 12:41:23;;;;;;;6.57;2.45;;;19.40;47.50;;;;;;5016333;28;20072;-67
2021/03/29 12:44:01;;;;;;;8.00;2.75;;;19.50;47.60;;;;;;5018638;28;20494;-68
2021/03/29 12:46:27;;;;;;;8.20;2.22;;;19.40;47.20;;;;;;5033838;28;20124;-67
2021/03/29 12:48:52;;;;;;;7.93;2.63;;;19.50;47.40;;;;;;5020400;28;20034;-68
2021/03/29 12:51:18;;;;;;;4.25;2.25;;;19.50;47.50;;;;;;5027496;28;20045;-67
2021/03/29 12:53:44;;;;;;;9.57;2.75;;;19.50;47.60;;;;;;5029296;28;20047;-67
2021/03/29 12:56:10;;;;;;;6.80;2.40;;;19.50;47.60;;;;;;5032954;28;20022;-68
2021/03/29 12:58:37;;;;;;;10.10;3.08;;;19.60;47.20;;;;;;5031043;28;20327;-68
2021/03/29 13:01:07;;;;;;;6.13;2.80;;;19.60;47.50;;;;;;5032849;28;20079;-67
2021/03/29 13:03:39;;;;;;;9.52;3.25;;;19.60;47.50;;;;;;5032333;28;20053;-67
2021/03/29 13:06:21;;;;;;;5.55;2.50;;;19.70;47.50;;;;;;5033187;28;20041;-68
2021/03/29 13:08:47;;;;;;;12.55;3.22;;;19.70;47.40;;;;;;5030468;28;20028;-67
2021/03/29 13:11:28;;;;;;;5.70;2.92;;;19.70;47.40;;;;;;5033152;28;20040;-67
2021/03/29 13:14:00;;;;;;;8.25;2.47;;;19.70;47.40;;;;;;5026472;28;20116;-68